首页
METAR-TAF:

METAR-TAF

机场 :

Johnson County Airport

水牛城, 怀俄明州, 美国

纬度: 44-22-53N, 经度: 106-43-08W, 海拔: 1514米

当前天气观测

该预报发布于46分钟前的17:09 UTC
风速30节,风向北转西北,有时为42节阵风
温度 -2°C
湿度 86%
气压 1014 hPa
能見度: 16.1公里
阴天层高于800英尺

METAR: KBYG 201709Z AUTO 34030G42KT 10SM OVC008 M02/M04 A2994 RMK AO2 PK WND 35042/1708 UPE02 CIG 005V011 P0000 T10171044

时间: 10:55 (17:55 UTC)


TAF: 丢失

超过4000个机场的气象观测和天气预报(METAR&TAF报告)。

可查询的气象台以黄色和红色小点在地图上表示。

将鼠标移到小点上方,可查看气象台名称。

然后点击查看天气观测和预报。

如需切换地图:点击带黑十字的绿色按钮放大地图;点击带横线的绿色按钮缩小地图;或者点击绿色箭头查看邻近地区的地图。


METAR-TAF: